Terminal Aerodrome Forecast
Issued by NWS Boston, MA

Home | Current Version | Previous Version | Text Only | Print | Product List | Glossary On
Versions: 1 2 3 4 5 6 7 8 9 10 11 12 13 14 15 16 17 18 19 20 21 22 23 24 25 26 27 28
000
FTUS41 KBOX 250817 AAA
TAFBOS
TAF AMD
KBOS 250817Z 2508/2612 29006KT P6SM SCT060
     FM251600 26006KT P6SM FEW200
     FM260300 22007KT P6SM BKN060
     FM260700 24009KT P6SM SCT250=

USA.gov is the U.S. government's official web portal to all federal, state and local government web resources and services.